Terminal Aerodrome Forecast
Issued by NWS Charleston, WV

Current Version | Previous Version | Text Only | Print | Product List | Glossary Off
Versions: 1 2 3 4 5 6 7 8 9 10 11 12 13 14 15 16 17 18 19 20 21 22 23 24 25 26 27 28 29 30 31

000
FTUS41 KRLX 272359 CCA
TAFEKN
TAF COR
KEKN 272359Z 2800/2824 VRB03KT 3/4SM SHRA BR SCT025 OVC050
     FM280200 00000KT 6SM BR BKN040
     FM280700 00000KT 1 1/2SM BR FEW001
     FM280800 00000KT 3/4SM BR BKN002
     FM280900 00000KT 1/2SM FG BKN002
     FM281300 00000KT P6SM SCT060=

USA.gov is the U.S. government's official web portal to all federal, state and local government web resources and services.